createdAt,value
2023-05-18T00:00:24.315Z,8.50
2023-05-18T00:03:20.967Z,8.48
2023-05-18T00:06:10.397Z,8.47
2023-05-18T00:08:58.959Z,8.47
2023-05-18T00:11:48.099Z,8.43
2023-05-18T00:14:36.929Z,8.38
2023-05-18T00:17:25.626Z,8.34
2023-05-18T00:20:15.258Z,8.30
2023-05-18T00:23:03.844Z,8.27
2023-05-18T00:25:52.500Z,8.24
2023-05-18T00:28:41.582Z,8.20
2023-05-18T00:31:30.212Z,8.16
2023-05-18T00:34:18.771Z,8.11
2023-05-18T00:37:07.278Z,8.06
2023-05-18T00:39:55.976Z,8.01
2023-05-18T00:42:44.587Z,7.97
2023-05-18T00:45:33.439Z,7.94
2023-05-18T00:48:22.158Z,7.91
2023-05-18T00:51:11.526Z,7.87
2023-05-18T00:54:01.647Z,7.83
2023-05-18T00:56:50.597Z,7.80
2023-05-18T01:04:24.717Z,7.69
2023-05-18T01:07:16.677Z,7.66
2023-05-18T01:10:05.962Z,7.66
2023-05-18T01:12:57.471Z,7.63
2023-05-18T01:15:48.597Z,7.62
2023-05-18T01:18:43.637Z,7.61
2023-05-18T01:21:43.274Z,7.58
2023-05-18T06:09:04.623Z,9.38
2023-05-18T06:11:54.811Z,9.34
2023-05-18T06:28:49.739Z,9.26
2023-05-18T06:31:51.866Z,9.33
2023-05-18T06:34:55.211Z,9.35
2023-05-18T06:37:46.128Z,9.39
2023-05-18T06:40:36.248Z,9.41
2023-05-18T06:43:42.459Z,9.42
2023-05-18T06:46:47.817Z,9.43
2023-05-18T06:49:47.911Z,9.48
2023-05-18T06:52:38.774Z,9.56
2023-05-18T06:55:30.395Z,9.60
2023-05-18T06:58:20.713Z,9.64
2023-05-18T07:01:15.945Z,9.67
2023-05-18T07:04:08.344Z,9.74
2023-05-18T07:07:04.312Z,9.83
2023-05-18T07:19:41.255Z,10.11
2023-05-18T07:22:30.302Z,10.23
2023-05-18T07:25:19.213Z,10.36
2023-05-18T07:28:24.444Z,10.42
2023-05-18T07:31:14.530Z,10.40
2023-05-18T07:37:27.030Z,10.43
2023-05-18T07:40:15.893Z,10.55
2023-05-18T07:43:04.979Z,10.66
2023-05-18T07:46:11.540Z,10.78
2023-05-18T07:49:01.687Z,10.80
2023-05-18T09:32:48.338Z,12.01
2023-05-18T09:35:37.763Z,12.00
2023-05-18T09:38:28.183Z,11.99
2023-05-18T09:41:17.827Z,12.08
2023-05-18T09:44:09.710Z,12.12
2023-05-18T11:30:15.264Z,13.92
2023-05-18T11:33:31.571Z,13.97
2023-05-18T11:37:25.969Z,14.01
2023-05-18T11:40:47.756Z,13.88
2023-05-18T11:43:36.600Z,13.79
2023-05-18T11:46:26.475Z,13.78
2023-05-18T11:49:17.127Z,13.78
2023-05-18T11:52:18.450Z,13.77
2023-05-18T11:55:08.780Z,13.90
2023-05-18T11:57:57.580Z,13.99
2023-05-18T12:00:48.513Z,13.90
2023-05-18T12:03:39.618Z,13.85
2023-05-18T12:06:28.469Z,13.76
2023-05-18T12:09:18.059Z,13.77
2023-05-18T12:12:07.562Z,13.80
2023-05-18T12:15:07.750Z,13.85
2023-05-18T12:17:58.853Z,13.91
2023-05-18T12:20:49.862Z,14.02
2023-05-18T12:23:38.386Z,14.19
2023-05-18T12:26:28.626Z,14.16
2023-05-18T12:29:20.126Z,14.24
2023-05-18T12:32:10.786Z,14.56
2023-05-18T12:35:00.067Z,14.80
2023-05-18T12:37:48.575Z,14.74
2023-05-18T12:40:44.752Z,14.70
2023-05-18T12:43:34.910Z,14.60
2023-05-18T12:46:24.516Z,14.35
2023-05-18T12:49:13.305Z,14.29
2023-05-18T12:52:08.897Z,14.32
2023-05-18T12:55:01.473Z,14.30
2023-05-18T12:58:03.387Z,14.35
2023-05-18T13:00:51.992Z,14.45
2023-05-18T13:03:42.021Z,14.54
2023-05-18T13:06:30.666Z,14.49
2023-05-18T13:09:47.815Z,14.43
2023-05-18T13:12:39.561Z,14.34
2023-05-18T13:15:34.868Z,14.33
2023-05-18T13:18:23.418Z,14.33
2023-05-18T13:21:11.960Z,14.28
2023-05-18T13:24:01.246Z,14.16
2023-05-18T13:26:50.004Z,14.15
2023-05-18T13:29:38.531Z,14.11
2023-05-18T13:32:27.118Z,14.15
2023-05-18T13:35:15.806Z,14.15
2023-05-18T13:38:04.792Z,14.15
2023-05-18T13:40:53.501Z,14.05
2023-05-18T13:43:42.839Z,13.94
2023-05-18T13:46:32.047Z,13.92
2023-05-18T13:49:21.968Z,13.91
2023-05-18T13:52:10.600Z,13.93
2023-05-18T13:54:59.162Z,13.85
2023-05-18T13:57:47.875Z,13.81
2023-05-18T14:00:37.033Z,13.82
2023-05-18T14:03:25.965Z,13.88
2023-05-18T14:34:05.085Z,13.75
2023-05-18T14:36:51.621Z,13.59
2023-05-18T14:39:39.111Z,13.48
2023-05-18T14:42:26.448Z,13.42
2023-05-18T15:02:42.524Z,12.83
2023-05-18T15:05:32.294Z,12.79
2023-05-18T15:08:21.315Z,12.75
2023-05-18T15:11:10.077Z,12.68
2023-05-18T15:13:58.799Z,12.63
2023-05-18T15:16:47.652Z,12.56
2023-05-18T15:19:36.639Z,12.52
2023-05-18T15:22:26.088Z,12.52
2023-05-18T15:25:14.615Z,12.51
2023-05-18T15:28:03.356Z,12.52
2023-05-18T15:30:52.182Z,12.52
2023-05-18T15:33:43.466Z,12.48
2023-05-18T15:36:33.915Z,12.44
2023-05-18T15:39:22.462Z,12.39
2023-05-18T15:42:12.036Z,12.35
2023-05-18T15:45:00.722Z,12.33
2023-05-18T15:47:49.382Z,12.33
2023-05-18T15:50:38.075Z,12.37
2023-05-18T15:53:26.718Z,12.40
2023-05-18T15:56:15.286Z,12.41
2023-05-18T15:59:04.157Z,12.35
2023-05-18T16:01:52.768Z,12.30
2023-05-18T16:04:41.656Z,12.28
2023-05-18T16:07:30.224Z,12.25
2023-05-18T16:10:18.912Z,12.20
2023-05-18T16:13:07.500Z,12.16
2023-05-18T16:15:56.117Z,12.15
2023-05-18T16:18:44.718Z,12.13
2023-05-18T16:21:33.429Z,12.12
2023-05-18T16:24:21.985Z,12.12
2023-05-18T16:27:10.605Z,12.10
2023-05-18T16:38:53.629Z,12.08
2023-05-18T16:41:42.289Z,12.05
2023-05-18T16:44:30.878Z,12.10
2023-05-18T16:47:19.599Z,12.13
2023-05-18T16:50:08.745Z,12.14
2023-05-18T16:52:57.393Z,12.14
2023-05-18T16:55:46.232Z,12.15
2023-05-18T16:58:34.727Z,12.19
2023-05-18T17:01:28.649Z,12.21
2023-05-18T17:04:17.842Z,12.20
2023-05-18T17:07:06.772Z,12.18
2023-05-18T17:09:55.313Z,12.17
2023-05-18T17:12:44.016Z,12.19
2023-05-18T17:15:34.350Z,12.20
2023-05-18T17:18:23.037Z,12.17
2023-05-18T17:21:11.684Z,12.14
2023-05-18T17:24:00.263Z,12.15
2023-05-18T17:26:49.318Z,12.15
2023-05-18T17:29:38.454Z,12.16
2023-05-18T17:32:26.983Z,12.17
2023-05-18T17:35:16.038Z,12.10
2023-05-18T17:38:05.088Z,12.04
2023-05-18T17:40:53.676Z,11.97
2023-05-18T17:43:42.892Z,11.91
2023-05-18T17:46:31.453Z,11.90
2023-05-18T17:49:20.009Z,11.89
2023-05-18T17:52:08.572Z,11.86
2023-05-18T17:54:57.270Z,11.82
2023-05-18T17:57:46.740Z,11.79
2023-05-18T18:00:35.353Z,11.77
2023-05-18T18:03:24.025Z,11.75
2023-05-18T18:06:12.688Z,11.73
2023-05-18T18:09:02.562Z,11.69
2023-05-18T18:11:51.348Z,11.67
2023-05-18T18:14:39.900Z,11.67
2023-05-18T18:17:29.074Z,11.65
2023-05-18T18:20:17.762Z,11.63
2023-05-18T18:23:07.433Z,11.63
2023-05-18T18:25:56.002Z,11.59
2023-05-18T18:28:44.548Z,11.56
2023-05-18T18:31:33.426Z,11.54
2023-05-18T18:34:22.062Z,11.53
2023-05-18T18:37:10.887Z,11.48
2023-05-18T18:39:59.996Z,11.40
2023-05-18T18:42:48.629Z,11.31
2023-05-18T18:45:37.401Z,11.24
2023-05-18T18:48:26.599Z,11.19
2023-05-18T18:51:15.126Z,11.08
2023-05-18T18:54:04.041Z,11.01
2023-05-18T18:56:52.851Z,10.89
2023-05-18T18:59:41.406Z,10.77
2023-05-18T19:02:30.020Z,10.69
2023-05-18T19:05:22.854Z,10.63
2023-05-18T19:08:11.707Z,10.54
2023-05-18T19:11:00.432Z,10.46
2023-05-18T19:13:49.085Z,10.42
2023-05-18T19:16:37.748Z,10.39
2023-05-18T19:19:26.494Z,10.34
2023-05-18T19:22:15.334Z,10.36
2023-05-18T19:25:04.637Z,10.33
2023-05-18T19:27:53.904Z,10.29
2023-05-18T19:30:42.439Z,10.25
2023-05-18T19:33:31.187Z,10.17
2023-05-18T19:36:19.859Z,10.12
2023-05-18T19:39:08.363Z,10.08
2023-05-18T19:41:56.904Z,10.06
2023-05-18T19:44:45.494Z,10.03
2023-05-18T19:47:34.314Z,9.99
2023-05-18T19:50:22.911Z,9.98
2023-05-18T19:53:11.614Z,9.96
2023-05-18T19:56:00.687Z,9.95
2023-05-18T19:58:49.775Z,9.94
2023-05-18T20:01:38.392Z,9.91
2023-05-18T20:04:28.730Z,9.85
2023-05-18T20:07:18.178Z,9.75
2023-05-18T20:10:06.998Z,9.73
2023-05-18T20:12:55.555Z,9.70
2023-05-18T20:15:44.097Z,9.67
2023-05-18T20:18:34.969Z,9.66
2023-05-18T20:21:23.534Z,9.60
2023-05-18T20:24:12.193Z,9.53
2023-05-18T20:27:00.720Z,9.49
2023-05-18T20:29:49.267Z,9.47
2023-05-18T20:32:37.861Z,9.44
2023-05-18T20:35:26.584Z,9.43
2023-05-18T20:38:15.641Z,9.46
2023-05-18T20:41:04.912Z,9.41
2023-05-18T20:43:53.784Z,9.32
2023-05-18T20:46:42.806Z,9.25
2023-05-18T20:49:31.948Z,9.21
2023-05-18T20:52:20.680Z,9.18
2023-05-18T20:55:09.396Z,9.13
2023-05-18T20:57:57.915Z,9.08
2023-05-18T21:00:46.708Z,9.05
2023-05-18T21:03:35.680Z,9.00
2023-05-18T21:06:25.605Z,8.92
2023-05-18T21:09:14.190Z,8.87
2023-05-18T21:12:02.769Z,8.84
2023-05-18T21:14:51.386Z,8.80
2023-05-18T21:17:39.953Z,8.79
2023-05-18T21:20:28.664Z,8.73
2023-05-18T21:23:17.153Z,8.70
2023-05-18T21:26:05.876Z,8.67
2023-05-18T21:28:54.402Z,8.71
2023-05-18T21:31:43.335Z,8.78
2023-05-18T21:34:32.085Z,8.81
2023-05-18T21:37:20.868Z,8.86
2023-05-18T21:40:09.845Z,8.88
2023-05-18T21:42:58.545Z,8.93
2023-05-18T21:45:47.091Z,8.96
2023-05-18T21:48:35.660Z,9.00
2023-05-18T21:51:25.719Z,9.02
2023-05-18T21:54:14.292Z,9.02
2023-05-18T21:57:03.172Z,9.01
2023-05-18T21:59:51.713Z,9.03
2023-05-18T22:02:40.897Z,8.94
2023-05-18T22:05:29.465Z,8.82
2023-05-18T22:08:18.322Z,8.76
2023-05-18T22:11:06.901Z,8.73
2023-05-18T22:13:55.552Z,8.69
2023-05-18T22:16:44.339Z,8.64
2023-05-18T22:19:32.929Z,8.58
2023-05-18T22:22:30.402Z,8.58
2023-05-18T22:25:19.842Z,8.63
2023-05-18T22:28:08.389Z,8.71
2023-05-18T22:30:56.926Z,8.76
2023-05-18T22:33:45.494Z,8.84
2023-05-18T22:36:35.318Z,8.91
2023-05-18T22:39:23.857Z,8.97
2023-05-18T22:42:12.449Z,9.01
2023-05-18T22:45:02.298Z,9.02
2023-05-18T22:47:51.401Z,9.06
2023-05-18T22:50:39.992Z,9.04
2023-05-18T22:53:28.709Z,9.07
2023-05-18T22:56:19.569Z,9.06
2023-05-18T22:59:10.262Z,9.03
2023-05-18T23:01:58.804Z,9.01
2023-05-18T23:04:47.400Z,8.91
2023-05-18T23:07:36.660Z,8.80
2023-05-18T23:10:26.600Z,8.76
2023-05-18T23:13:19.682Z,8.75
2023-05-18T23:16:10.488Z,8.72
2023-05-18T23:19:01.692Z,8.70
2023-05-18T23:21:50.481Z,8.71
2023-05-18T23:24:39.068Z,8.71
2023-05-18T23:27:27.622Z,8.68
2023-05-18T23:30:16.219Z,8.67
2023-05-18T23:33:06.210Z,8.67
2023-05-18T23:35:59.896Z,8.63
2023-05-18T23:38:51.065Z,8.57
2023-05-18T23:41:40.848Z,8.50
2023-05-18T23:44:29.753Z,8.48
2023-05-18T23:47:18.726Z,8.44
2023-05-18T23:50:08.271Z,8.46
2023-05-18T23:53:01.001Z,8.49
2023-05-18T23:55:50.852Z,8.54
2023-05-18T23:58:44.832Z,8.58
